sensor_id;sensor_type;location;lat;lon;timestamp;temperature;humidity
6758;DHT22;3416;53.074;8.822;2023-07-29T00:01:36;19.30;99.90
6758;DHT22;3416;53.074;8.822;2023-07-29T00:04:03;19.30;99.90
6758;DHT22;3416;53.074;8.822;2023-07-29T00:06:31;19.30;99.90
6758;DHT22;3416;53.074;8.822;2023-07-29T00:08:58;19.30;99.90
6758;DHT22;3416;53.074;8.822;2023-07-29T00:11:26;19.40;99.90
6758;DHT22;3416;53.074;8.822;2023-07-29T00:13:53;19.40;99.90
6758;DHT22;3416;53.074;8.822;2023-07-29T00:16:20;19.40;99.90
6758;DHT22;3416;53.074;8.822;2023-07-29T00:18:48;19.40;99.90
6758;DHT22;3416;53.074;8.822;2023-07-29T00:21:15;19.30;99.90
6758;DHT22;3416;53.074;8.822;2023-07-29T00:23:42;19.30;99.90
6758;DHT22;3416;53.074;8.822;2023-07-29T00:26:08;19.20;99.90
6758;DHT22;3416;53.074;8.822;2023-07-29T00:28:37;19.20;99.90
6758;DHT22;3416;53.074;8.822;2023-07-29T00:31:04;19.20;99.90
6758;DHT22;3416;53.074;8.822;2023-07-29T00:33:31;19.20;99.90
6758;DHT22;3416;53.074;8.822;2023-07-29T00:35:58;19.20;99.90
6758;DHT22;3416;53.074;8.822;2023-07-29T00:38:27;19.20;99.90
6758;DHT22;3416;53.074;8.822;2023-07-29T00:40:54;19.20;99.90
6758;DHT22;3416;53.074;8.822;2023-07-29T00:43:21;19.30;99.90
6758;DHT22;3416;53.074;8.822;2023-07-29T00:45:49;19.30;99.90
6758;DHT22;3416;53.074;8.822;2023-07-29T00:48:16;19.30;99.90
6758;DHT22;3416;53.074;8.822;2023-07-29T00:50:44;19.30;99.90
6758;DHT22;3416;53.074;8.822;2023-07-29T00:53:11;19.30;99.90
6758;DHT22;3416;53.074;8.822;2023-07-29T00:55:38;19.30;99.90
6758;DHT22;3416;53.074;8.822;2023-07-29T00:58:05;19.20;99.90
6758;DHT22;3416;53.074;8.822;2023-07-29T01:00:32;19.20;99.90
6758;DHT22;3416;53.074;8.822;2023-07-29T01:03:01;19.30;99.90
6758;DHT22;3416;53.074;8.822;2023-07-29T01:05:32;19.30;99.90
6758;DHT22;3416;53.074;8.822;2023-07-29T01:08:07;19.30;99.90
6758;DHT22;3416;53.074;8.822;2023-07-29T01:10:43;19.30;99.90
6758;DHT22;3416;53.074;8.822;2023-07-29T01:13:16;19.20;99.90
6758;DHT22;3416;53.074;8.822;2023-07-29T01:15:48;19.20;99.90
6758;DHT22;3416;53.074;8.822;2023-07-29T01:18:23;19.10;99.90
6758;DHT22;3416;53.074;8.822;2023-07-29T01:20:53;19.10;99.90
6758;DHT22;3416;53.074;8.822;2023-07-29T01:23:25;19.00;99.90
6758;DHT22;3416;53.074;8.822;2023-07-29T01:25:52;18.90;99.90
6758;DHT22;3416;53.074;8.822;2023-07-29T01:28:19;18.90;99.90
6758;DHT22;3416;53.074;8.822;2023-07-29T01:30:49;18.90;99.90
6758;DHT22;3416;53.074;8.822;2023-07-29T01:33:23;18.80;99.90
6758;DHT22;3416;53.074;8.822;2023-07-29T01:35:57;18.70;99.90
6758;DHT22;3416;53.074;8.822;2023-07-29T01:38:29;18.70;99.90
6758;DHT22;3416;53.074;8.822;2023-07-29T01:40:58;18.60;99.90
6758;DHT22;3416;53.074;8.822;2023-07-29T01:43:27;18.60;99.90
6758;DHT22;3416;53.074;8.822;2023-07-29T01:45:54;18.60;99.90
6758;DHT22;3416;53.074;8.822;2023-07-29T01:48:21;18.60;99.90
6758;DHT22;3416;53.074;8.822;2023-07-29T01:50:48;18.50;99.90
6758;DHT22;3416;53.074;8.822;2023-07-29T01:53:15;18.50;99.90
6758;DHT22;3416;53.074;8.822;2023-07-29T01:55:43;18.40;99.90
6758;DHT22;3416;53.074;8.822;2023-07-29T01:58:10;18.40;99.90
6758;DHT22;3416;53.074;8.822;2023-07-29T02:00:38;18.30;99.90
6758;DHT22;3416;53.074;8.822;2023-07-29T02:03:05;18.30;99.90
6758;DHT22;3416;53.074;8.822;2023-07-29T02:05:32;18.20;99.90
6758;DHT22;3416;53.074;8.822;2023-07-29T02:07:59;18.20;99.90
6758;DHT22;3416;53.074;8.822;2023-07-29T02:10:26;18.20;99.90
6758;DHT22;3416;53.074;8.822;2023-07-29T02:12:54;18.20;99.90
6758;DHT22;3416;53.074;8.822;2023-07-29T02:15:21;18.10;99.90
6758;DHT22;3416;53.074;8.822;2023-07-29T02:17:50;18.10;99.90
6758;DHT22;3416;53.074;8.822;2023-07-29T02:20:17;18.10;99.90
6758;DHT22;3416;53.074;8.822;2023-07-29T02:22:44;18.10;99.90
6758;DHT22;3416;53.074;8.822;2023-07-29T02:25:11;18.10;99.90
6758;DHT22;3416;53.074;8.822;2023-07-29T02:27:38;18.10;99.90
6758;DHT22;3416;53.074;8.822;2023-07-29T02:30:07;18.10;99.90
6758;DHT22;3416;53.074;8.822;2023-07-29T02:32:35;18.10;99.90
6758;DHT22;3416;53.074;8.822;2023-07-29T02:35:02;18.10;99.90
6758;DHT22;3416;53.074;8.822;2023-07-29T02:37:29;18.10;99.90
6758;DHT22;3416;53.074;8.822;2023-07-29T02:39:56;18.10;99.90
6758;DHT22;3416;53.074;8.822;2023-07-29T02:42:22;18.00;99.90
6758;DHT22;3416;53.074;8.822;2023-07-29T02:44:49;18.00;99.90
6758;DHT22;3416;53.074;8.822;2023-07-29T02:47:18;18.00;99.90
6758;DHT22;3416;53.074;8.822;2023-07-29T02:49:45;18.00;99.90
6758;DHT22;3416;53.074;8.822;2023-07-29T02:52:12;18.00;99.90
6758;DHT22;3416;53.074;8.822;2023-07-29T02:54:38;18.00;99.90
6758;DHT22;3416;53.074;8.822;2023-07-29T02:57:06;18.00;99.90
6758;DHT22;3416;53.074;8.822;2023-07-29T02:59:33;18.00;99.90
6758;DHT22;3416;53.074;8.822;2023-07-29T03:01:59;18.00;99.90
6758;DHT22;3416;53.074;8.822;2023-07-29T03:04:28;17.90;99.90
6758;DHT22;3416;53.074;8.822;2023-07-29T03:06:56;18.00;99.90
6758;DHT22;3416;53.074;8.822;2023-07-29T03:09:22;17.90;99.90
6758;DHT22;3416;53.074;8.822;2023-07-29T03:11:49;18.00;99.90
6758;DHT22;3416;53.074;8.822;2023-07-29T03:14:18;17.90;99.90
6758;DHT22;3416;53.074;8.822;2023-07-29T03:16:45;17.90;99.90
6758;DHT22;3416;53.074;8.822;2023-07-29T03:19:12;17.90;99.90
6758;DHT22;3416;53.074;8.822;2023-07-29T03:21:40;17.90;99.90
6758;DHT22;3416;53.074;8.822;2023-07-29T03:24:07;17.90;99.90
6758;DHT22;3416;53.074;8.822;2023-07-29T03:26:34;17.80;99.90
6758;DHT22;3416;53.074;8.822;2023-07-29T03:29:01;17.90;99.90
6758;DHT22;3416;53.074;8.822;2023-07-29T03:31:28;17.90;99.90
6758;DHT22;3416;53.074;8.822;2023-07-29T03:33:55;17.90;99.90
6758;DHT22;3416;53.074;8.822;2023-07-29T03:36:22;17.90;99.90
6758;DHT22;3416;53.074;8.822;2023-07-29T03:38:52;17.90;99.90
6758;DHT22;3416;53.074;8.822;2023-07-29T03:41:19;18.00;99.90
6758;DHT22;3416;53.074;8.822;2023-07-29T03:43:46;18.00;99.90
6758;DHT22;3416;53.074;8.822;2023-07-29T03:46:13;18.10;99.90
6758;DHT22;3416;53.074;8.822;2023-07-29T03:48:43;18.20;99.90
6758;DHT22;3416;53.074;8.822;2023-07-29T03:51:10;18.20;99.90
6758;DHT22;3416;53.074;8.822;2023-07-29T03:53:37;18.20;99.90
6758;DHT22;3416;53.074;8.822;2023-07-29T03:56:05;18.20;99.90
6758;DHT22;3416;53.074;8.822;2023-07-29T03:58:32;18.20;99.90
6758;DHT22;3416;53.074;8.822;2023-07-29T04:00:59;18.40;99.90
6758;DHT22;3416;53.074;8.822;2023-07-29T04:03:26;18.40;99.90
6758;DHT22;3416;53.074;8.822;2023-07-29T04:05:53;18.40;99.90
6758;DHT22;3416;53.074;8.822;2023-07-29T04:08:20;18.40;99.90
6758;DHT22;3416;53.074;8.822;2023-07-29T04:10:47;18.40;99.90
6758;DHT22;3416;53.074;8.822;2023-07-29T04:13:16;18.40;99.90
6758;DHT22;3416;53.074;8.822;2023-07-29T04:15:43;18.40;99.90
6758;DHT22;3416;53.074;8.822;2023-07-29T04:18:09;18.40;99.90
6758;DHT22;3416;53.074;8.822;2023-07-29T04:20:36;18.50;99.90
6758;DHT22;3416;53.074;8.822;2023-07-29T04:23:03;18.50;99.90
6758;DHT22;3416;53.074;8.822;2023-07-29T04:25:30;18.50;99.90
6758;DHT22;3416;53.074;8.822;2023-07-29T04:27:57;18.50;99.90
6758;DHT22;3416;53.074;8.822;2023-07-29T04:30:25;18.50;99.90
6758;DHT22;3416;53.074;8.822;2023-07-29T04:32:52;18.50;99.90
6758;DHT22;3416;53.074;8.822;2023-07-29T04:35:19;18.50;99.90
6758;DHT22;3416;53.074;8.822;2023-07-29T04:37:46;18.60;99.90
6758;DHT22;3416;53.074;8.822;2023-07-29T04:40:13;18.50;99.90
6758;DHT22;3416;53.074;8.822;2023-07-29T04:42:40;18.60;99.90
6758;DHT22;3416;53.074;8.822;2023-07-29T04:45:07;18.60;99.90
6758;DHT22;3416;53.074;8.822;2023-07-29T04:47:36;18.70;99.90
6758;DHT22;3416;53.074;8.822;2023-07-29T04:50:03;18.80;99.90
6758;DHT22;3416;53.074;8.822;2023-07-29T04:52:32;18.80;99.90
6758;DHT22;3416;53.074;8.822;2023-07-29T04:54:59;18.90;99.90
6758;DHT22;3416;53.074;8.822;2023-07-29T04:57:26;19.00;99.90
6758;DHT22;3416;53.074;8.822;2023-07-29T04:59:53;19.00;99.90
6758;DHT22;3416;53.074;8.822;2023-07-29T05:02:20;19.10;99.90
6758;DHT22;3416;53.074;8.822;2023-07-29T05:04:49;19.10;99.90
6758;DHT22;3416;53.074;8.822;2023-07-29T05:07:15;19.20;99.90
6758;DHT22;3416;53.074;8.822;2023-07-29T05:09:42;19.20;99.90
6758;DHT22;3416;53.074;8.822;2023-07-29T05:12:09;19.20;99.90
6758;DHT22;3416;53.074;8.822;2023-07-29T05:14:36;19.30;99.90
6758;DHT22;3416;53.074;8.822;2023-07-29T05:17:03;19.20;99.90
6758;DHT22;3416;53.074;8.822;2023-07-29T05:19:30;19.20;99.90
6758;DHT22;3416;53.074;8.822;2023-07-29T05:21:59;19.30;99.90
6758;DHT22;3416;53.074;8.822;2023-07-29T05:24:26;19.50;99.90
6758;DHT22;3416;53.074;8.822;2023-07-29T05:26:53;19.70;99.90
6758;DHT22;3416;53.074;8.822;2023-07-29T05:29:19;20.00;99.90
6758;DHT22;3416;53.074;8.822;2023-07-29T05:31:46;20.20;99.90
6758;DHT22;3416;53.074;8.822;2023-07-29T05:34:13;20.50;99.90
6758;DHT22;3416;53.074;8.822;2023-07-29T05:36:40;20.60;99.90
6758;DHT22;3416;53.074;8.822;2023-07-29T05:39:08;20.80;99.90
6758;DHT22;3416;53.074;8.822;2023-07-29T05:41:35;20.90;99.90
6758;DHT22;3416;53.074;8.822;2023-07-29T05:44:02;21.00;99.90
6758;DHT22;3416;53.074;8.822;2023-07-29T05:46:29;21.00;99.90
6758;DHT22;3416;53.074;8.822;2023-07-29T05:48:56;20.80;99.90
6758;DHT22;3416;53.074;8.822;2023-07-29T05:51:23;20.60;99.90
6758;DHT22;3416;53.074;8.822;2023-07-29T05:53:51;20.50;99.90
6758;DHT22;3416;53.074;8.822;2023-07-29T05:56:19;20.40;99.90
6758;DHT22;3416;53.074;8.822;2023-07-29T05:58:46;20.30;99.90
6758;DHT22;3416;53.074;8.822;2023-07-29T06:01:13;20.10;99.90
6758;DHT22;3416;53.074;8.822;2023-07-29T06:03:39;19.90;99.90
6758;DHT22;3416;53.074;8.822;2023-07-29T06:06:06;19.90;99.90
6758;DHT22;3416;53.074;8.822;2023-07-29T06:08:33;20.00;99.90
6758;DHT22;3416;53.074;8.822;2023-07-29T06:11:00;20.10;99.90
6758;DHT22;3416;53.074;8.822;2023-07-29T06:13:29;20.20;99.90
6758;DHT22;3416;53.074;8.822;2023-07-29T06:15:56;20.20;99.90
6758;DHT22;3416;53.074;8.822;2023-07-29T06:18:23;20.40;99.90
6758;DHT22;3416;53.074;8.822;2023-07-29T06:20:55;20.20;99.90
6758;DHT22;3416;53.074;8.822;2023-07-29T06:23:22;20.20;99.90
6758;DHT22;3416;53.074;8.822;2023-07-29T06:25:49;20.10;99.90
6758;DHT22;3416;53.074;8.822;2023-07-29T06:28:16;20.20;99.90
6758;DHT22;3416;53.074;8.822;2023-07-29T06:30:44;20.30;99.90
6758;DHT22;3416;53.074;8.822;2023-07-29T06:33:11;20.30;99.90
6758;DHT22;3416;53.074;8.822;2023-07-29T06:35:38;20.20;99.90
6758;DHT22;3416;53.074;8.822;2023-07-29T06:38:05;20.20;99.90
6758;DHT22;3416;53.074;8.822;2023-07-29T06:40:31;20.20;99.90
6758;DHT22;3416;53.074;8.822;2023-07-29T06:42:58;20.10;99.90
6758;DHT22;3416;53.074;8.822;2023-07-29T06:45:26;20.00;99.90
6758;DHT22;3416;53.074;8.822;2023-07-29T06:47:54;20.10;99.90
6758;DHT22;3416;53.074;8.822;2023-07-29T06:50:21;20.10;99.90
6758;DHT22;3416;53.074;8.822;2023-07-29T06:52:48;20.20;99.90
6758;DHT22;3416;53.074;8.822;2023-07-29T06:55:15;20.20;99.90
6758;DHT22;3416;53.074;8.822;2023-07-29T06:57:42;20.40;99.90
6758;DHT22;3416;53.074;8.822;2023-07-29T07:00:09;20.40;99.90
6758;DHT22;3416;53.074;8.822;2023-07-29T07:02:37;20.50;99.90
6758;DHT22;3416;53.074;8.822;2023-07-29T07:05:06;20.60;99.90
6758;DHT22;3416;53.074;8.822;2023-07-29T07:07:33;20.70;99.90
6758;DHT22;3416;53.074;8.822;2023-07-29T07:10:00;20.90;99.90
6758;DHT22;3416;53.074;8.822;2023-07-29T07:12:27;21.10;99.90
6758;DHT22;3416;53.074;8.822;2023-07-29T07:14:54;21.30;99.90
6758;DHT22;3416;53.074;8.822;2023-07-29T07:17:21;21.30;99.90
6758;DHT22;3416;53.074;8.822;2023-07-29T07:19:48;21.60;99.90
6758;DHT22;3416;53.074;8.822;2023-07-29T07:22:17;21.70;99.90
6758;DHT22;3416;53.074;8.822;2023-07-29T07:24:44;21.60;99.90
6758;DHT22;3416;53.074;8.822;2023-07-29T07:27:11;21.50;99.90
6758;DHT22;3416;53.074;8.822;2023-07-29T07:29:38;21.50;99.90
6758;DHT22;3416;53.074;8.822;2023-07-29T07:32:05;21.40;99.90
6758;DHT22;3416;53.074;8.822;2023-07-29T07:34:32;21.30;99.90
6758;DHT22;3416;53.074;8.822;2023-07-29T07:37:00;21.20;99.90
6758;DHT22;3416;53.074;8.822;2023-07-29T07:39:28;21.20;99.90
6758;DHT22;3416;53.074;8.822;2023-07-29T07:41:55;21.20;99.90
6758;DHT22;3416;53.074;8.822;2023-07-29T07:44:22;21.20;99.90
6758;DHT22;3416;53.074;8.822;2023-07-29T07:46:52;21.20;99.90
6758;DHT22;3416;53.074;8.822;2023-07-29T07:49:19;21.20;99.90
6758;DHT22;3416;53.074;8.822;2023-07-29T07:51:45;21.20;99.90
6758;DHT22;3416;53.074;8.822;2023-07-29T07:54:12;21.20;99.90
6758;DHT22;3416;53.074;8.822;2023-07-29T07:56:42;21.10;99.90
6758;DHT22;3416;53.074;8.822;2023-07-29T07:59:09;21.10;99.90
6758;DHT22;3416;53.074;8.822;2023-07-29T08:01:38;21.00;99.90
6758;DHT22;3416;53.074;8.822;2023-07-29T08:04:05;20.90;99.90
6758;DHT22;3416;53.074;8.822;2023-07-29T08:06:32;20.90;99.90
6758;DHT22;3416;53.074;8.822;2023-07-29T08:08:59;21.00;99.90
6758;DHT22;3416;53.074;8.822;2023-07-29T08:11:26;21.40;99.90
6758;DHT22;3416;53.074;8.822;2023-07-29T08:13:54;22.20;99.90
6758;DHT22;3416;53.074;8.822;2023-07-29T08:16:21;22.90;99.90
6758;DHT22;3416;53.074;8.822;2023-07-29T08:18:48;23.30;99.90
6758;DHT22;3416;53.074;8.822;2023-07-29T08:21:15;23.70;99.90
6758;DHT22;3416;53.074;8.822;2023-07-29T08:23:42;24.20;99.90
6758;DHT22;3416;53.074;8.822;2023-07-29T08:26:09;24.30;99.90
6758;DHT22;3416;53.074;8.822;2023-07-29T08:28:37;24.80;99.90
6758;DHT22;3416;53.074;8.822;2023-07-29T08:31:07;25.80;99.90
6758;DHT22;3416;53.074;8.822;2023-07-29T08:33:34;26.40;99.90
6758;DHT22;3416;53.074;8.822;2023-07-29T08:36:02;26.50;99.90
6758;DHT22;3416;53.074;8.822;2023-07-29T08:38:29;26.10;99.90
6758;DHT22;3416;53.074;8.822;2023-07-29T08:41:04;25.80;99.90
6758;DHT22;3416;53.074;8.822;2023-07-29T08:43:33;25.50;99.90
6758;DHT22;3416;53.074;8.822;2023-07-29T08:46:00;25.20;99.90
6758;DHT22;3416;53.074;8.822;2023-07-29T08:48:35;24.90;99.90
6758;DHT22;3416;53.074;8.822;2023-07-29T08:51:04;24.60;99.90
6758;DHT22;3416;53.074;8.822;2023-07-29T08:53:32;24.50;99.90
6758;DHT22;3416;53.074;8.822;2023-07-29T08:55:59;24.80;99.90
6758;DHT22;3416;53.074;8.822;2023-07-29T08:58:26;25.10;99.90
6758;DHT22;3416;53.074;8.822;2023-07-29T09:00:53;25.60;99.90
6758;DHT22;3416;53.074;8.822;2023-07-29T09:03:20;26.30;99.90
6758;DHT22;3416;53.074;8.822;2023-07-29T09:05:49;26.30;99.90
6758;DHT22;3416;53.074;8.822;2023-07-29T09:08:17;26.20;99.90
6758;DHT22;3416;53.074;8.822;2023-07-29T09:10:44;25.60;99.90
6758;DHT22;3416;53.074;8.822;2023-07-29T09:13:11;25.70;99.90
6758;DHT22;3416;53.074;8.822;2023-07-29T09:15:39;25.80;99.90
6758;DHT22;3416;53.074;8.822;2023-07-29T09:18:11;26.20;99.90
6758;DHT22;3416;53.074;8.822;2023-07-29T09:20:39;26.40;99.90
6758;DHT22;3416;53.074;8.822;2023-07-29T09:23:09;26.30;99.90
6758;DHT22;3416;53.074;8.822;2023-07-29T09:25:37;26.50;99.90
6758;DHT22;3416;53.074;8.822;2023-07-29T09:28:08;26.40;99.90
6758;DHT22;3416;53.074;8.822;2023-07-29T09:30:37;25.50;99.90
6758;DHT22;3416;53.074;8.822;2023-07-29T09:33:03;25.10;99.90
6758;DHT22;3416;53.074;8.822;2023-07-29T09:35:32;25.00;99.90
6758;DHT22;3416;53.074;8.822;2023-07-29T09:38:00;25.00;99.90
6758;DHT22;3416;53.074;8.822;2023-07-29T09:40:34;25.20;99.90
6758;DHT22;3416;53.074;8.822;2023-07-29T09:43:02;26.00;99.90
6758;DHT22;3416;53.074;8.822;2023-07-29T09:45:30;26.80;99.90
6758;DHT22;3416;53.074;8.822;2023-07-29T09:47:57;27.30;99.40
6758;DHT22;3416;53.074;8.822;2023-07-29T09:50:25;27.50;98.50
6758;DHT22;3416;53.074;8.822;2023-07-29T09:52:54;27.70;96.80
6758;DHT22;3416;53.074;8.822;2023-07-29T09:55:22;27.60;96.90
6758;DHT22;3416;53.074;8.822;2023-07-29T09:57:53;27.50;96.90
6758;DHT22;3416;53.074;8.822;2023-07-29T10:00:20;27.40;97.70
6758;DHT22;3416;53.074;8.822;2023-07-29T10:02:48;27.80;96.50
6758;DHT22;3416;53.074;8.822;2023-07-29T10:05:15;27.70;96.60
6758;DHT22;3416;53.074;8.822;2023-07-29T10:07:42;28.00;95.90
6758;DHT22;3416;53.074;8.822;2023-07-29T10:10:09;28.10;95.60
6758;DHT22;3416;53.074;8.822;2023-07-29T10:12:39;28.00;94.70
6758;DHT22;3416;53.074;8.822;2023-07-29T10:15:10;27.20;95.00
6758;DHT22;3416;53.074;8.822;2023-07-29T10:17:38;27.00;96.70
6758;DHT22;3416;53.074;8.822;2023-07-29T10:20:07;26.80;97.00
6758;DHT22;3416;53.074;8.822;2023-07-29T10:22:37;27.10;97.80
6758;DHT22;3416;53.074;8.822;2023-07-29T10:25:05;27.10;96.90
6758;DHT22;3416;53.074;8.822;2023-07-29T10:27:42;26.90;97.70
6758;DHT22;3416;53.074;8.822;2023-07-29T10:30:11;27.40;96.40
6758;DHT22;3416;53.074;8.822;2023-07-29T10:32:39;27.50;95.50
6758;DHT22;3416;53.074;8.822;2023-07-29T10:35:08;27.30;95.00
6758;DHT22;3416;53.074;8.822;2023-07-29T10:37:35;27.40;95.50
6758;DHT22;3416;53.074;8.822;2023-07-29T10:40:06;27.50;95.10
6758;DHT22;3416;53.074;8.822;2023-07-29T10:42:33;27.90;95.00
6758;DHT22;3416;53.074;8.822;2023-07-29T10:45:02;28.00;94.60
6758;DHT22;3416;53.074;8.822;2023-07-29T10:47:45;27.70;94.80
6758;DHT22;3416;53.074;8.822;2023-07-29T10:50:17;26.80;94.90
6758;DHT22;3416;53.074;8.822;2023-07-29T10:52:49;26.60;96.30
6758;DHT22;3416;53.074;8.822;2023-07-29T10:55:32;26.40;96.90
6758;DHT22;3416;53.074;8.822;2023-07-29T10:58:07;26.10;97.90
6758;DHT22;3416;53.074;8.822;2023-07-29T11:00:34;26.10;98.40
6758;DHT22;3416;53.074;8.822;2023-07-29T11:03:05;26.50;99.00
6758;DHT22;3416;53.074;8.822;2023-07-29T11:05:43;26.40;97.70
6758;DHT22;3416;53.074;8.822;2023-07-29T11:08:18;26.00;97.20
6758;DHT22;3416;53.074;8.822;2023-07-29T11:11:01;25.60;98.00
6758;DHT22;3416;53.074;8.822;2023-07-29T11:13:29;25.90;98.50
6758;DHT22;3416;53.074;8.822;2023-07-29T11:15:56;26.20;97.70
6758;DHT22;3416;53.074;8.822;2023-07-29T11:18:27;26.10;96.90
6758;DHT22;3416;53.074;8.822;2023-07-29T11:20:56;26.00;97.20
6758;DHT22;3416;53.074;8.822;2023-07-29T11:23:28;25.80;97.20
6758;DHT22;3416;53.074;8.822;2023-07-29T11:25:57;25.50;97.40
6758;DHT22;3416;53.074;8.822;2023-07-29T11:28:25;25.30;97.50
6758;DHT22;3416;53.074;8.822;2023-07-29T11:30:52;25.30;97.90
6758;DHT22;3416;53.074;8.822;2023-07-29T11:33:20;25.20;98.00
6758;DHT22;3416;53.074;8.822;2023-07-29T11:35:49;24.90;98.70
6758;DHT22;3416;53.074;8.822;2023-07-29T11:38:16;25.00;98.90
6758;DHT22;3416;53.074;8.822;2023-07-29T11:40:53;25.10;97.90
6758;DHT22;3416;53.074;8.822;2023-07-29T11:43:20;25.00;97.60
6758;DHT22;3416;53.074;8.822;2023-07-29T11:45:47;25.10;97.40
6758;DHT22;3416;53.074;8.822;2023-07-29T11:48:14;25.20;97.90
6758;DHT22;3416;53.074;8.822;2023-07-29T11:50:40;25.10;98.10
6758;DHT22;3416;53.074;8.822;2023-07-29T11:53:10;25.20;98.20
6758;DHT22;3416;53.074;8.822;2023-07-29T11:55:39;25.30;98.10
6758;DHT22;3416;53.074;8.822;2023-07-29T11:58:06;25.40;97.50
6758;DHT22;3416;53.074;8.822;2023-07-29T12:00:33;25.30;97.50
6758;DHT22;3416;53.074;8.822;2023-07-29T12:03:01;25.30;97.50
6758;DHT22;3416;53.074;8.822;2023-07-29T12:05:28;25.30;97.50
6758;DHT22;3416;53.074;8.822;2023-07-29T12:07:55;25.30;96.60
6758;DHT22;3416;53.074;8.822;2023-07-29T12:10:25;25.40;97.40
6758;DHT22;3416;53.074;8.822;2023-07-29T12:12:52;25.50;97.30
6758;DHT22;3416;53.074;8.822;2023-07-29T12:15:25;25.60;97.20
6758;DHT22;3416;53.074;8.822;2023-07-29T12:17:54;25.90;97.40
6758;DHT22;3416;53.074;8.822;2023-07-29T12:20:23;26.30;96.50
6758;DHT22;3416;53.074;8.822;2023-07-29T12:22:53;26.60;96.50
6758;DHT22;3416;53.074;8.822;2023-07-29T12:25:21;26.50;95.20
6758;DHT22;3416;53.074;8.822;2023-07-29T12:27:50;26.60;95.80
6758;DHT22;3416;53.074;8.822;2023-07-29T12:30:20;26.70;95.10
6758;DHT22;3416;53.074;8.822;2023-07-29T12:32:49;26.70;94.80
6758;DHT22;3416;53.074;8.822;2023-07-29T12:35:17;26.50;94.40
6758;DHT22;3416;53.074;8.822;2023-07-29T12:37:44;26.60;95.10
6758;DHT22;3416;53.074;8.822;2023-07-29T12:40:23;26.70;94.30
6758;DHT22;3416;53.074;8.822;2023-07-29T12:42:52;26.90;94.70
6758;DHT22;3416;53.074;8.822;2023-07-29T12:45:19;27.00;94.80
6758;DHT22;3416;53.074;8.822;2023-07-29T12:47:48;26.90;94.80
6758;DHT22;3416;53.074;8.822;2023-07-29T12:50:15;26.80;94.80
6758;DHT22;3416;53.074;8.822;2023-07-29T12:52:42;26.80;94.80
6758;DHT22;3416;53.074;8.822;2023-07-29T12:55:09;26.70;94.40
6758;DHT22;3416;53.074;8.822;2023-07-29T12:57:39;26.70;94.50
6758;DHT22;3416;53.074;8.822;2023-07-29T13:00:09;26.50;94.40
6758;DHT22;3416;53.074;8.822;2023-07-29T13:02:37;26.50;94.60
6758;DHT22;3416;53.074;8.822;2023-07-29T13:05:05;26.60;94.50
6758;DHT22;3416;53.074;8.822;2023-07-29T13:07:33;26.60;94.70
6758;DHT22;3416;53.074;8.822;2023-07-29T13:10:00;26.60;94.30
6758;DHT22;3416;53.074;8.822;2023-07-29T13:12:27;26.70;94.40
6758;DHT22;3416;53.074;8.822;2023-07-29T13:14:54;26.60;94.70
6758;DHT22;3416;53.074;8.822;2023-07-29T13:17:23;26.50;94.90
6758;DHT22;3416;53.074;8.822;2023-07-29T13:19:50;26.50;95.10
6758;DHT22;3416;53.074;8.822;2023-07-29T13:22:17;26.50;94.90
6758;DHT22;3416;53.074;8.822;2023-07-29T13:24:44;26.50;94.80
6758;DHT22;3416;53.074;8.822;2023-07-29T13:27:11;26.60;94.70
6758;DHT22;3416;53.074;8.822;2023-07-29T13:29:38;26.60;94.60
6758;DHT22;3416;53.074;8.822;2023-07-29T13:32:07;26.50;94.50
6758;DHT22;3416;53.074;8.822;2023-07-29T13:34:35;26.40;94.70
6758;DHT22;3416;53.074;8.822;2023-07-29T13:37:05;26.40;95.00
6758;DHT22;3416;53.074;8.822;2023-07-29T13:39:32;26.50;95.20
6758;DHT22;3416;53.074;8.822;2023-07-29T13:42:01;26.70;95.10
6758;DHT22;3416;53.074;8.822;2023-07-29T13:44:28;26.90;94.80
6758;DHT22;3416;53.074;8.822;2023-07-29T13:46:57;26.80;94.80
6758;DHT22;3416;53.074;8.822;2023-07-29T13:49:25;26.60;94.30
6758;DHT22;3416;53.074;8.822;2023-07-29T13:52:04;26.50;95.00
6758;DHT22;3416;53.074;8.822;2023-07-29T13:54:31;26.60;94.70
6758;DHT22;3416;53.074;8.822;2023-07-29T13:57:06;26.80;94.80
6758;DHT22;3416;53.074;8.822;2023-07-29T13:59:35;26.80;95.10
6758;DHT22;3416;53.074;8.822;2023-07-29T14:02:05;26.50;95.00
6758;DHT22;3416;53.074;8.822;2023-07-29T14:04:33;26.20;95.60
6758;DHT22;3416;53.074;8.822;2023-07-29T14:07:00;26.40;95.40
6758;DHT22;3416;53.074;8.822;2023-07-29T14:09:28;26.40;95.60
6758;DHT22;3416;53.074;8.822;2023-07-29T14:11:55;26.20;94.80
6758;DHT22;3416;53.074;8.822;2023-07-29T14:14:26;26.00;95.60
6758;DHT22;3416;53.074;8.822;2023-07-29T14:16:53;26.00;96.00
6758;DHT22;3416;53.074;8.822;2023-07-29T14:19:20;26.30;95.40
6758;DHT22;3416;53.074;8.822;2023-07-29T14:21:48;26.30;95.30
6758;DHT22;3416;53.074;8.822;2023-07-29T14:24:15;26.50;94.60
6758;DHT22;3416;53.074;8.822;2023-07-29T14:26:43;26.70;94.70
6758;DHT22;3416;53.074;8.822;2023-07-29T14:29:10;26.70;94.50
6758;DHT22;3416;53.074;8.822;2023-07-29T14:31:37;26.60;94.70
6758;DHT22;3416;53.074;8.822;2023-07-29T14:34:04;26.40;94.40
6758;DHT22;3416;53.074;8.822;2023-07-29T14:36:31;26.20;94.40
6758;DHT22;3416;53.074;8.822;2023-07-29T14:38:58;26.10;95.20
6758;DHT22;3416;53.074;8.822;2023-07-29T14:41:24;26.10;94.80
6758;DHT22;3416;53.074;8.822;2023-07-29T14:43:53;26.10;95.00
6758;DHT22;3416;53.074;8.822;2023-07-29T14:46:20;26.30;95.20
6758;DHT22;3416;53.074;8.822;2023-07-29T14:48:47;26.40;95.00
6758;DHT22;3416;53.074;8.822;2023-07-29T14:51:14;26.50;94.90
6758;DHT22;3416;53.074;8.822;2023-07-29T14:53:41;26.30;95.10
6758;DHT22;3416;53.074;8.822;2023-07-29T14:56:08;25.90;95.00
6758;DHT22;3416;53.074;8.822;2023-07-29T14:58:35;25.80;95.50
6758;DHT22;3416;53.074;8.822;2023-07-29T15:01:03;25.80;95.90
6758;DHT22;3416;53.074;8.822;2023-07-29T15:03:30;25.80;95.60
6758;DHT22;3416;53.074;8.822;2023-07-29T15:05:58;25.70;96.30
6758;DHT22;3416;53.074;8.822;2023-07-29T15:08:26;25.40;97.90
6758;DHT22;3416;53.074;8.822;2023-07-29T15:10:53;24.80;99.20
6758;DHT22;3416;53.074;8.822;2023-07-29T15:13:20;24.50;99.90
6758;DHT22;3416;53.074;8.822;2023-07-29T15:15:47;24.20;99.90
6758;DHT22;3416;53.074;8.822;2023-07-29T15:18:17;23.90;99.90
6758;DHT22;3416;53.074;8.822;2023-07-29T15:20:44;23.80;99.90
6758;DHT22;3416;53.074;8.822;2023-07-29T15:23:11;23.70;99.90
6758;DHT22;3416;53.074;8.822;2023-07-29T15:25:38;23.50;99.90
6758;DHT22;3416;53.074;8.822;2023-07-29T15:28:05;23.20;99.90
6758;DHT22;3416;53.074;8.822;2023-07-29T15:30:35;23.20;99.90
6758;DHT22;3416;53.074;8.822;2023-07-29T15:33:02;23.10;99.90
6758;DHT22;3416;53.074;8.822;2023-07-29T15:35:36;22.90;99.90
6758;DHT22;3416;53.074;8.822;2023-07-29T15:38:03;22.70;99.90
6758;DHT22;3416;53.074;8.822;2023-07-29T15:40:30;22.60;99.90
6758;DHT22;3416;53.074;8.822;2023-07-29T15:42:57;22.40;99.90
6758;DHT22;3416;53.074;8.822;2023-07-29T15:45:25;22.30;99.90
6758;DHT22;3416;53.074;8.822;2023-07-29T15:47:52;22.10;99.90
6758;DHT22;3416;53.074;8.822;2023-07-29T15:50:19;22.00;99.90
6758;DHT22;3416;53.074;8.822;2023-07-29T15:52:47;21.80;99.90
6758;DHT22;3416;53.074;8.822;2023-07-29T15:55:14;21.70;99.90
6758;DHT22;3416;53.074;8.822;2023-07-29T15:57:41;21.60;99.90
6758;DHT22;3416;53.074;8.822;2023-07-29T16:00:09;21.50;99.90
6758;DHT22;3416;53.074;8.822;2023-07-29T16:02:37;21.60;99.90
6758;DHT22;3416;53.074;8.822;2023-07-29T16:05:04;21.70;99.90
6758;DHT22;3416;53.074;8.822;2023-07-29T16:07:32;21.70;99.90